sensor_id;sensor_type;location;lat;lon;timestamp;pressure;altitude;pressure_sealevel;temperature;humidity
7990;BME280;4040;42.848;23.034;2023-02-11T00:00:52;96601.84;;;-5.01;100.00
7990;BME280;4040;42.848;23.034;2023-02-11T00:11:03;96609.44;;;-5.24;100.00
7990;BME280;4040;42.848;23.034;2023-02-11T00:16:53;96617.84;;;-5.17;100.00
7990;BME280;4040;42.848;23.034;2023-02-11T00:22:42;96605.78;;;-5.08;100.00
7990;BME280;4040;42.848;23.034;2023-02-11T00:28:31;96605.78;;;-5.08;100.00
7990;BME280;4040;42.848;23.034;2023-02-11T00:34:22;96598.19;;;-5.10;100.00
7990;BME280;4040;42.848;23.034;2023-02-11T00:40:11;96606.03;;;-5.15;100.00
7990;BME280;4040;42.848;23.034;2023-02-11T00:46:02;96592.38;;;-5.17;100.00
7990;BME280;4040;42.848;23.034;2023-02-11T00:51:52;96568.94;;;-5.38;100.00
7990;BME280;4040;42.848;23.034;2023-02-11T00:57:41;96561.06;;;-5.43;100.00
7990;BME280;4040;42.848;23.034;2023-02-11T01:03:30;96598.13;;;-5.30;100.00
7990;BME280;4040;42.848;23.034;2023-02-11T01:13:42;96589.44;;;-5.35;100.00
7990;BME280;4040;42.848;23.034;2023-02-11T01:19:31;96587.84;;;-5.41;100.00
7990;BME280;4040;42.848;23.034;2023-02-11T01:25:20;96590.94;;;-5.49;100.00
7990;BME280;4040;42.848;23.034;2023-02-11T01:31:11;96575.72;;;-5.57;100.00
7990;BME280;4040;42.848;23.034;2023-02-11T01:36:59;96587.50;;;-5.60;100.00
7990;BME280;4040;42.848;23.034;2023-02-11T01:42:48;96579.38;;;-5.58;100.00
7990;BME280;4040;42.848;23.034;2023-02-11T01:48:41;96581.47;;;-5.60;100.00
7990;BME280;4040;42.848;23.034;2023-02-11T01:54:32;96571.53;;;-5.53;100.00
7990;BME280;4040;42.848;23.034;2023-02-11T01:57:16;96569.94;;;-5.54;100.00
7990;BME280;4040;42.848;23.034;2023-02-11T02:03:14;96553.84;;;-5.78;100.00
7990;BME280;4040;42.848;23.034;2023-02-11T02:09:10;96569.88;;;-5.74;100.00
7990;BME280;4040;42.848;23.034;2023-02-11T02:15:19;96577.75;;;-5.79;100.00
7990;BME280;4040;42.848;23.034;2023-02-11T02:21:29;96580.38;;;-5.74;100.00
7990;BME280;4040;42.848;23.034;2023-02-11T02:27:33;96586.38;;;-5.74;100.00
7990;BME280;4040;42.848;23.034;2023-02-11T02:33:43;96578.78;;;-5.80;100.00
7990;BME280;4040;42.848;23.034;2023-02-11T02:39:35;96573.28;;;-5.74;100.00
7990;BME280;4040;42.848;23.034;2023-02-11T02:45:24;96570.41;;;-5.77;100.00
7990;BME280;4040;42.848;23.034;2023-02-11T02:51:37;96572.44;;;-5.89;100.00
7990;BME280;4040;42.848;23.034;2023-02-11T02:57:33;96568.75;;;-5.98;100.00
7990;BME280;4040;42.848;23.034;2023-02-11T03:03:30;96566.59;;;-6.06;100.00
7990;BME280;4040;42.848;23.034;2023-02-11T03:12:46;96563.88;;;-6.21;100.00
7990;BME280;4040;42.848;23.034;2023-02-11T03:18:39;96566.44;;;-6.36;100.00
7990;BME280;4040;42.848;23.034;2023-02-11T03:24:32;96532.22;;;-6.61;100.00
7990;BME280;4040;42.848;23.034;2023-02-11T03:30:26;96548.53;;;-6.49;100.00
7990;BME280;4040;42.848;23.034;2023-02-11T03:36:23;96550.78;;;-6.63;100.00
7990;BME280;4040;42.848;23.034;2023-02-11T03:42:15;96553.69;;;-6.59;100.00
7990;BME280;4040;42.848;23.034;2023-02-11T03:48:10;96550.50;;;-6.66;100.00
7990;BME280;4040;42.848;23.034;2023-02-11T03:54:05;96560.75;;;-6.60;100.00
7990;BME280;4040;42.848;23.034;2023-02-11T03:59:57;96559.03;;;-6.44;100.00
7990;BME280;4040;42.848;23.034;2023-02-11T04:05:48;96553.34;;;-6.31;100.00
7990;BME280;4040;42.848;23.034;2023-02-11T04:15:49;96543.06;;;-5.96;100.00
7990;BME280;4040;42.848;23.034;2023-02-11T04:21:40;96550.13;;;-5.97;100.00
7990;BME280;4040;42.848;23.034;2023-02-11T04:27:28;96535.63;;;-6.14;100.00
7990;BME280;4040;42.848;23.034;2023-02-11T04:33:17;96553.44;;;-6.11;100.00
7990;BME280;4040;42.848;23.034;2023-02-11T04:39:08;96552.69;;;-6.12;100.00
7990;BME280;4040;42.848;23.034;2023-02-11T04:44:57;96555.00;;;-6.20;100.00
7990;BME280;4040;42.848;23.034;2023-02-11T04:50:46;96560.16;;;-6.35;100.00
7990;BME280;4040;42.848;23.034;2023-02-11T04:56:37;96554.81;;;-6.50;100.00
7990;BME280;4040;42.848;23.034;2023-02-11T05:02:25;96533.19;;;-6.67;100.00
7990;BME280;4040;42.848;23.034;2023-02-11T05:08:14;96534.78;;;-6.66;100.00
7990;BME280;4040;42.848;23.034;2023-02-11T05:18:26;96531.25;;;-6.82;100.00
7990;BME280;4040;42.848;23.034;2023-02-11T05:24:15;96527.88;;;-6.82;100.00
7990;BME280;4040;42.848;23.034;2023-02-11T05:30:06;96535.72;;;-6.82;100.00
7990;BME280;4040;42.848;23.034;2023-02-11T05:35:58;96534.34;;;-6.90;100.00
7990;BME280;4040;42.848;23.034;2023-02-11T05:41:47;96535.22;;;-6.79;100.00
7990;BME280;4040;42.848;23.034;2023-02-11T05:47:36;96540.00;;;-6.66;100.00
7990;BME280;4040;42.848;23.034;2023-02-11T05:53:27;96540.59;;;-6.59;100.00
7990;BME280;4040;42.848;23.034;2023-02-11T05:59:16;96538.81;;;-6.49;100.00
7990;BME280;4040;42.848;23.034;2023-02-11T06:05:06;96542.53;;;-6.45;100.00
7990;BME280;4040;42.848;23.034;2023-02-11T06:10:56;96547.09;;;-6.30;100.00
7990;BME280;4040;42.848;23.034;2023-02-11T06:21:07;96550.03;;;-4.01;100.00
7990;BME280;4040;42.848;23.034;2023-02-11T06:26:58;96545.88;;;-1.39;100.00
7990;BME280;4040;42.848;23.034;2023-02-11T06:32:47;96547.59;;;-0.10;92.90
7990;BME280;4040;42.848;23.034;2023-02-11T06:38:36;96544.13;;;0.34;80.50
7990;BME280;4040;42.848;23.034;2023-02-11T06:44:26;96541.09;;;1.03;71.65
7990;BME280;4040;42.848;23.034;2023-02-11T06:50:15;96526.56;;;2.19;65.39
7990;BME280;4040;42.848;23.034;2023-02-11T06:56:06;96536.41;;;2.19;63.29
7990;BME280;4040;42.848;23.034;2023-02-11T07:01:56;96535.34;;;2.67;60.61
7990;BME280;4040;42.848;23.034;2023-02-11T07:07:46;96532.13;;;3.55;60.03
7990;BME280;4040;42.848;23.034;2023-02-11T07:13:34;96525.06;;;4.30;56.33
7990;BME280;4040;42.848;23.034;2023-02-11T07:23:47;96517.81;;;3.93;54.00
7990;BME280;4040;42.848;23.034;2023-02-11T07:29:36;96504.47;;;4.97;51.65
7990;BME280;4040;42.848;23.034;2023-02-11T07:35:25;96495.69;;;5.37;51.43
7990;BME280;4040;42.848;23.034;2023-02-11T07:41:18;96480.44;;;5.70;49.89
7990;BME280;4040;42.848;23.034;2023-02-11T07:47:07;96492.13;;;5.66;48.73
7990;BME280;4040;42.848;23.034;2023-02-11T07:52:56;96494.66;;;6.75;46.91
7990;BME280;4040;42.848;23.034;2023-02-11T07:58:47;96466.75;;;6.40;46.71
7990;BME280;4040;42.848;23.034;2023-02-11T08:04:36;96493.03;;;5.70;47.63
7990;BME280;4040;42.848;23.034;2023-02-11T08:10:25;96492.03;;;5.74;48.20
7990;BME280;4040;42.848;23.034;2023-02-11T08:16:19;96491.75;;;6.56;46.98
7990;BME280;4040;42.848;23.034;2023-02-11T08:26:32;96485.69;;;7.07;45.32
7990;BME280;4040;42.848;23.034;2023-02-11T08:32:23;96476.94;;;7.22;44.78
7990;BME280;4040;42.848;23.034;2023-02-11T08:38:13;96477.25;;;7.87;43.08
7990;BME280;4040;42.848;23.034;2023-02-11T08:44:02;96481.44;;;7.73;42.06
7990;BME280;4040;42.848;23.034;2023-02-11T08:49:52;96485.63;;;7.86;43.45
7990;BME280;4040;42.848;23.034;2023-02-11T08:55:47;96489.34;;;7.54;43.28
7990;BME280;4040;42.848;23.034;2023-02-11T09:01:36;96488.91;;;8.53;40.29
7990;BME280;4040;42.848;23.034;2023-02-11T09:07:27;96482.88;;;8.25;39.74
7990;BME280;4040;42.848;23.034;2023-02-11T09:13:16;96473.81;;;8.18;39.35
7990;BME280;4040;42.848;23.034;2023-02-11T09:19:05;96473.25;;;10.19;35.51
7990;BME280;4040;42.848;23.034;2023-02-11T09:29:18;96469.59;;;8.48;36.85
7990;BME280;4040;42.848;23.034;2023-02-11T09:35:07;96460.47;;;8.06;38.21
7990;BME280;4040;42.848;23.034;2023-02-11T09:40:56;96447.84;;;8.68;38.04
7990;BME280;4040;42.848;23.034;2023-02-11T09:46:53;96442.38;;;9.34;36.46
7990;BME280;4040;42.848;23.034;2023-02-11T09:52:46;96430.38;;;8.43;38.04
7990;BME280;4040;42.848;23.034;2023-02-11T09:58:40;96419.38;;;9.36;36.69
7990;BME280;4040;42.848;23.034;2023-02-11T10:04:48;96405.84;;;10.60;
7990;BME280;4040;42.848;23.034;2023-02-11T10:10:49;96391.09;;;9.65;36.44
7990;BME280;4040;42.848;23.034;2023-02-11T10:16:52;96373.41;;;12.15;33.69
7990;BME280;4040;42.848;23.034;2023-02-11T10:22:46;96357.63;;;11.11;33.93
7990;BME280;4040;42.848;23.034;2023-02-11T10:28:37;96348.09;;;11.86;32.26
7990;BME280;4040;42.848;23.034;2023-02-11T10:34:28;96256.03;;;10.00;33.94
7990;BME280;4040;42.848;23.034;2023-02-11T10:40:21;96313.91;;;10.65;33.42
7990;BME280;4040;42.848;23.034;2023-02-11T10:46:16;96317.50;;;12.83;31.47
7990;BME280;4040;42.848;23.034;2023-02-11T10:52:21;96314.56;;;10.85;33.36
7990;BME280;4040;42.848;23.034;2023-02-11T10:58:22;96290.16;;;12.27;31.85
7990;BME280;4040;42.848;23.034;2023-02-11T11:04:36;96279.09;;;13.35;29.96
7990;BME280;4040;42.848;23.034;2023-02-11T11:10:29;96192.50;;;13.35;29.49
7990;BME280;4040;42.848;23.034;2023-02-11T11:16:25;96276.97;;;12.15;31.78
7990;BME280;4040;42.848;23.034;2023-02-11T11:22:20;96273.72;;;13.56;29.46
7990;BME280;4040;42.848;23.034;2023-02-11T11:32:34;96251.28;;;14.43;28.26
7990;BME280;4040;42.848;23.034;2023-02-11T11:38:24;96252.78;;;13.25;28.80
7990;BME280;4040;42.848;23.034;2023-02-11T11:44:22;96247.16;;;12.76;29.18
7990;BME280;4040;42.848;23.034;2023-02-11T11:50:29;96237.94;;;11.62;30.55
7990;BME280;4040;42.848;23.034;2023-02-11T11:56:23;96140.88;;;11.73;29.37
7990;BME280;4040;42.848;23.034;2023-02-11T12:02:45;96223.19;;;11.53;29.65
7990;BME280;4040;42.848;23.034;2023-02-11T12:08:44;96222.38;;;11.45;31.02
7990;BME280;4040;42.848;23.034;2023-02-11T12:14:44;96180.38;;;11.95;29.79
7990;BME280;4040;42.848;23.034;2023-02-11T12:20:47;96177.22;;;11.86;29.53
7990;BME280;4040;42.848;23.034;2023-02-11T12:26:44;96185.34;;;9.07;32.58
7990;BME280;4040;42.848;23.034;2023-02-11T12:32:41;96189.53;;;5.24;39.12
7990;BME280;4040;42.848;23.034;2023-02-11T12:38:51;96174.41;;;5.04;42.18
7990;BME280;4040;42.848;23.034;2023-02-11T12:44:57;96172.94;;;4.83;41.64
7990;BME280;4040;42.848;23.034;2023-02-11T12:50:55;96171.16;;;4.75;41.33
7990;BME280;4040;42.848;23.034;2023-02-11T12:56:49;96167.06;;;4.89;40.52
7990;BME280;4040;42.848;23.034;2023-02-11T13:02:48;96159.47;;;4.68;41.37
7990;BME280;4040;42.848;23.034;2023-02-11T13:08:43;96159.50;;;4.47;42.10
7990;BME280;4040;42.848;23.034;2023-02-11T13:14:36;96156.09;;;4.59;43.19
7990;BME280;4040;42.848;23.034;2023-02-11T13:20:35;96156.09;;;4.59;43.57
7990;BME280;4040;42.848;23.034;2023-02-11T13:26:32;96139.72;;;4.48;42.08
7990;BME280;4040;42.848;23.034;2023-02-11T13:32:24;96087.47;;;4.35;42.37
7990;BME280;4040;42.848;23.034;2023-02-11T13:38:20;96126.50;;;4.40;43.05
7990;BME280;4040;42.848;23.034;2023-02-11T13:44:31;96124.03;;;4.35;43.46
7990;BME280;4040;42.848;23.034;2023-02-11T13:50:22;96125.47;;;4.32;44.12
7990;BME280;4040;42.848;23.034;2023-02-11T13:56:27;96125.19;;;4.46;43.53
7990;BME280;4040;42.848;23.034;2023-02-11T14:02:23;96108.69;;;4.32;43.45
7990;BME280;4040;42.848;23.034;2023-02-11T14:08:30;96118.78;;;4.26;44.45
7990;BME280;4040;42.848;23.034;2023-02-11T14:14:57;96109.88;;;4.22;44.35
7990;BME280;4040;42.848;23.034;2023-02-11T14:20:47;96110.16;;;4.09;44.12
7990;BME280;4040;42.848;23.034;2023-02-11T14:26:43;96097.47;;;3.94;44.49
7990;BME280;4040;42.848;23.034;2023-02-11T14:32:44;96080.34;;;3.83;45.18
7990;BME280;4040;42.848;23.034;2023-02-11T14:38:51;96109.06;;;3.77;46.00
7990;BME280;4040;42.848;23.034;2023-02-11T14:44:42;96101.13;;;3.69;45.51
7990;BME280;4040;42.848;23.034;2023-02-11T14:50:37;96067.09;;;3.33;45.18
7990;BME280;4040;42.848;23.034;2023-02-11T14:56:29;96089.44;;;3.41;46.31
7990;BME280;4040;42.848;23.034;2023-02-11T15:02:22;96086.25;;;3.27;47.39
7990;BME280;4040;42.848;23.034;2023-02-11T15:08:14;96076.47;;;3.19;47.71
7990;BME280;4040;42.848;23.034;2023-02-11T15:14:07;96067.47;;;3.03;46.79
7990;BME280;4040;42.848;23.034;2023-02-11T15:19:59;96070.50;;;2.93;47.88
7990;BME280;4040;42.848;23.034;2023-02-11T15:25:50;96078.69;;;2.79;49.19
7990;BME280;4040;42.848;23.034;2023-02-11T15:31:42;96075.81;;;2.64;49.25
7990;BME280;4040;42.848;23.034;2023-02-11T15:37:31;96082.41;;;2.58;48.51
7990;BME280;4040;42.848;23.034;2023-02-11T15:43:22;96080.44;;;2.46;48.55
7990;BME280;4040;42.848;23.034;2023-02-11T15:49:13;96079.72;;;2.29;49.54
7990;BME280;4040;42.848;23.034;2023-02-11T15:55:11;96080.06;;;2.19;50.50
7990;BME280;4040;42.848;23.034;2023-02-11T16:01:03;96072.00;;;1.90;51.88
7990;BME280;4040;42.848;23.034;2023-02-11T16:06:54;96083.91;;;1.67;53.09
7990;BME280;4040;42.848;23.034;2023-02-11T16:12:50;96090.75;;;1.51;54.14
7990;BME280;4040;42.848;23.034;2023-02-11T16:18:44;96068.56;;;0.96;55.74
7990;BME280;4040;42.848;23.034;2023-02-11T16:24:38;96090.25;;;0.98;58.71
7990;BME280;4040;42.848;23.034;2023-02-11T16:34:51;96105.00;;;0.65;68.50
7990;BME280;4040;42.848;23.034;2023-02-11T16:40:41;96081.69;;;0.45;75.36
7990;BME280;4040;42.848;23.034;2023-02-11T16:46:32;96074.94;;;0.00;86.89
7990;BME280;4040;42.848;23.034;2023-02-11T16:52:23;96097.81;;;-0.03;92.39
7990;BME280;4040;42.848;23.034;2023-02-11T16:58:13;96098.44;;;0.24;92.18
7990;BME280;4040;42.848;23.034;2023-02-11T17:04:02;96085.78;;;0.51;87.72
7990;BME280;4040;42.848;23.034;2023-02-11T17:09:53;96081.75;;;-0.07;99.79
7990;BME280;4040;42.848;23.034;2023-02-11T17:15:41;96084.84;;;-0.35;100.00
7990;BME280;4040;42.848;23.034;2023-02-11T17:21:30;96080.75;;;-0.41;100.00
7990;BME280;4040;42.848;23.034;2023-02-11T17:27:21;96095.56;;;-0.76;100.00
7990;BME280;4040;42.848;23.034;2023-02-11T17:37:32;96105.28;;;-0.49;100.00
7990;BME280;4040;42.848;23.034;2023-02-11T17:43:22;96095.16;;;-0.69;100.00
7990;BME280;4040;42.848;23.034;2023-02-11T17:49:11;96059.63;;;-1.12;100.00
7990;BME280;4040;42.848;23.034;2023-02-11T17:55:00;96094.44;;;-0.83;100.00
7990;BME280;4040;42.848;23.034;2023-02-11T18:00:50;96108.75;;;-0.98;100.00
7990;BME280;4040;42.848;23.034;2023-02-11T18:06:39;96095.53;;;-0.62;90.71
7990;BME280;4040;42.848;23.034;2023-02-11T18:12:28;96090.00;;;-0.52;88.15
7990;BME280;4040;42.848;23.034;2023-02-11T18:18:18;96094.59;;;-0.66;94.63
7990;BME280;4040;42.848;23.034;2023-02-11T18:24:08;96087.78;;;-0.94;100.00
7990;BME280;4040;42.848;23.034;2023-02-11T18:29:56;96098.59;;;-1.18;100.00
7990;BME280;4040;42.848;23.034;2023-02-11T18:40:11;96054.00;;;-1.60;100.00
7990;BME280;4040;42.848;23.034;2023-02-11T18:46:00;96081.22;;;-1.46;100.00
7990;BME280;4040;42.848;23.034;2023-02-11T18:51:50;96080.44;;;-1.46;100.00
7990;BME280;4040;42.848;23.034;2023-02-11T18:57:41;96082.78;;;-1.58;100.00
7990;BME280;4040;42.848;23.034;2023-02-11T19:03:30;96080.63;;;-1.56;100.00
7990;BME280;4040;42.848;23.034;2023-02-11T19:09:19;96062.13;;;-1.70;100.00
7990;BME280;4040;42.848;23.034;2023-02-11T19:15:10;96083.38;;;-1.61;100.00
7990;BME280;4040;42.848;23.034;2023-02-11T19:20:58;96084.16;;;-1.47;100.00
7990;BME280;4040;42.848;23.034;2023-02-11T19:26:49;96067.03;;;-1.36;100.00
7990;BME280;4040;42.848;23.034;2023-02-11T19:32:40;96066.69;;;-1.21;97.83
7990;BME280;4040;42.848;23.034;2023-02-11T19:42:51;96062.75;;;-1.10;92.97
7990;BME280;4040;42.848;23.034;2023-02-11T19:48:42;96062.94;;;-1.07;90.31
7990;BME280;4040;42.848;23.034;2023-02-11T19:54:30;96056.28;;;-1.04;89.03
7990;BME280;4040;42.848;23.034;2023-02-11T20:00:20;96047.66;;;-0.96;84.99
7990;BME280;4040;42.848;23.034;2023-02-11T20:06:13;96045.50;;;-0.94;82.96
7990;BME280;4040;42.848;23.034;2023-02-11T20:12:01;96042.59;;;-1.06;83.01
7990;BME280;4040;42.848;23.034;2023-02-11T20:17:51;96028.47;;;-1.02;81.72
7990;BME280;4040;42.848;23.034;2023-02-11T20:23:41;96034.19;;;-1.08;81.82
7990;BME280;4040;42.848;23.034;2023-02-11T20:29:33;96030.50;;;-1.21;84.98
7990;BME280;4040;42.848;23.034;2023-02-11T20:35:22;96037.00;;;-1.40;90.29
7990;BME280;4040;42.848;23.034;2023-02-11T20:45:35;96014.19;;;-1.63;94.02
7990;BME280;4040;42.848;23.034;2023-02-11T20:51:26;96004.72;;;-1.51;92.27
7990;BME280;4040;42.848;23.034;2023-02-11T20:57:15;95997.16;;;-1.30;87.69
7990;BME280;4040;42.848;23.034;2023-02-11T21:03:06;95983.81;;;-1.25;88.29
7990;BME280;4040;42.848;23.034;2023-02-11T21:08:55;95985.50;;;-1.29;90.78
7990;BME280;4040;42.848;23.034;2023-02-11T21:14:44;95976.97;;;-1.26;88.49
7990;BME280;4040;42.848;23.034;2023-02-11T21:20:35;95971.44;;;-1.16;85.92
7990;BME280;4040;42.848;23.034;2023-02-11T21:26:24;95969.78;;;-1.26;87.36
7990;BME280;4040;42.848;23.034;2023-02-11T21:32:12;95961.19;;;-1.31;89.50
7990;BME280;4040;42.848;23.034;2023-02-11T21:38:05;95965.94;;;-1.42;94.85
7990;BME280;4040;42.848;23.034;2023-02-11T21:48:16;95966.84;;;-1.46;100.00
7990;BME280;4040;42.848;23.034;2023-02-11T21:54:06;95971.25;;;-1.55;100.00
7990;BME280;4040;42.848;23.034;2023-02-11T21:59:55;95976.94;;;-1.48;100.00
7990;BME280;4040;42.848;23.034;2023-02-11T22:05:45;95974.50;;;-1.58;100.00
7990;BME280;4040;42.848;23.034;2023-02-11T22:11:35;95954.44;;;-1.59;100.00
7990;BME280;4040;42.848;23.034;2023-02-11T22:17:25;95967.16;;;-1.61;100.00
7990;BME280;4040;42.848;23.034;2023-02-11T22:23:14;95973.75;;;-1.37;100.00
7990;BME280;4040;42.848;23.034;2023-02-11T22:29:04;95956.09;;;-1.28;100.00
7990;BME280;4040;42.848;23.034;2023-02-11T22:34:53;95953.56;;;-1.19;100.00
7990;BME280;4040;42.848;23.034;2023-02-11T22:40:42;95945.91;;;-1.21;100.00
7990;BME280;4040;42.848;23.034;2023-02-11T22:50:54;95943.03;;;-1.33;100.00
7990;BME280;4040;42.848;23.034;2023-02-11T22:56:44;95940.56;;;-1.29;100.00
7990;BME280;4040;42.848;23.034;2023-02-11T23:08:30;95926.59;;;-1.43;100.00
7990;BME280;4040;42.848;23.034;2023-02-11T23:14:20;95923.47;;;-1.45;100.00
7990;BME280;4040;42.848;23.034;2023-02-11T23:20:10;95921.19;;;-1.60;100.00
7990;BME280;4040;42.848;23.034;2023-02-11T23:26:00;95935.91;;;-1.81;100.00
7990;BME280;4040;42.848;23.034;2023-02-11T23:31:50;95927.97;;;-1.81;100.00
7990;BME280;4040;42.848;23.034;2023-02-11T23:37:39;95924.75;;;-1.78;100.00
7990;BME280;4040;42.848;23.034;2023-02-11T23:43:29;95923.84;;;-1.60;100.00
7990;BME280;4040;42.848;23.034;2023-02-11T23:49:19;95919.53;;;-1.34;100.00
7990;BME280;4040;42.848;23.034;2023-02-11T23:55:08;95910.28;;;-1.23;100.00
